Time;durP1;ratioP1;P1;durP2;ratioP2;P2;SDS_P1;SDS_P2;PMS_P1;PMS_P2;Temp;Humidity;BMP_temperature;BMP_pressure;BME280_temperature;BME280_humidity;BME280_pressure;Samples;Min_cycle;Max_cycle;Signal;HPM_P1;HPM_P2
2023/09/30 00:02:13;;;;;;;535.10;274.30;;;;;;;;;;5051056;27;20721;-53
2023/09/30 00:04:39;;;;;;;506.23;255.40;;;;;;;;;;5062141;28;20241;-53
2023/09/30 00:07:05;;;;;;;554.77;286.00;;;;;;;;;;5050350;27;20188;-52
2023/09/30 00:09:32;;;;;;;513.60;256.90;;;;;;;;;;5049887;28;20743;-53
2023/09/30 00:11:57;;;;;;;508.00;261.10;;;;;;;;;;5057688;27;20214;-52
2023/09/30 00:14:23;;;;;;;460.50;235.67;;;;;;;;;;5054849;28;20733;-52
2023/09/30 00:16:50;;;;;;;528.07;275.97;;;;;;;;;;5056694;28;20451;-52
2023/09/30 00:19:16;;;;;;;532.67;276.63;;;;;;;;;;5054257;28;20233;-52
2023/09/30 00:21:42;;;;;;;479.73;243.20;;;;;;;;;;5051184;28;20178;-52
2023/09/30 00:24:09;;;;;;;550.40;284.97;;;;;;;;;;5054434;28;20401;-53
2023/09/30 00:26:35;;;;;;;542.20;276.33;;;;;;;;;;5054889;28;22047;-52
2023/09/30 00:29:04;;;;;;;498.10;246.40;;;;;;;;;;5056910;27;20324;-53
2023/09/30 00:31:30;;;;;;;501.90;250.60;;;;;;;;;;5052827;28;20202;-52
2023/09/30 00:33:56;;;;;;;557.23;287.80;;;;;;;;;;5058994;27;20178;-53
2023/09/30 00:36:22;;;;;;;527.40;271.33;;;;;;;;;;5064620;28;20221;-52
2023/09/30 00:38:48;;;;;;;483.10;243.20;;;;;;;;;;5056021;27;20309;-53
2023/09/30 00:41:14;;;;;;;502.47;256.23;;;;;;;;;;5057631;28;20218;-52
2023/09/30 00:43:41;;;;;;;493.10;248.50;;;;;;;;;;5064785;28;20278;-52
2023/09/30 00:46:26;;;;;;;472.70;238.13;;;19.80;1.00;;;;;;5059142;28;20194;-52
2023/09/30 00:48:53;;;;;;;521.83;263.63;;;;;;;;;;5050990;27;20222;-53
2023/09/30 00:51:19;;;;;;;508.70;257.07;;;20.10;99.90;;;;;;5061905;28;20251;-53
2023/09/30 00:53:45;;;;;;;468.47;231.27;;;19.60;99.90;;;;;;5054425;28;20215;-53
2023/09/30 00:56:11;;;;;;;546.10;271.63;;;;;;;;;;5052326;28;20210;-56
2023/09/30 00:58:38;;;;;;;491.97;245.10;;;;;;;;;;5061329;28;20218;-53
2023/09/30 01:01:05;;;;;;;507.27;245.07;;;;;;;;;;5050655;27;20182;-52
2023/09/30 01:03:31;;;;;;;529.37;259.70;;;;;;;;;;5050896;28;20179;-52
2023/09/30 01:05:57;;;;;;;506.73;243.57;;;;;;;;;;5055719;28;20859;-52
2023/09/30 01:08:23;;;;;;;459.77;222.13;;;;;;;;;;5060256;27;20254;-52
2023/09/30 01:10:49;;;;;;;497.30;236.37;;;;;;;;;;5059057;28;20218;-52
2023/09/30 01:13:16;;;;;;;525.47;258.07;;;;;;;;;;5056795;27;20211;-53
2023/09/30 01:15:42;;;;;;;519.17;253.97;;;;;;;;;;5058956;28;20184;-52
2023/09/30 01:18:08;;;;;;;504.33;245.53;;;18.50;1.00;;;;;;5061010;27;20865;-52
2023/09/30 01:20:34;;;;;;;505.43;244.70;;;;;;;;;;5060462;27;21288;-52
2023/09/30 01:23:01;;;;;;;491.20;231.73;;;18.30;99.90;;;;;;5059861;27;20214;-53
2023/09/30 01:25:27;;;;;;;534.37;261.07;;;18.20;1.00;;;;;;5064797;27;20528;-53
2023/09/30 01:27:54;;;;;;;500.50;239.67;;;;;;;;;;5059241;28;20560;-51
2023/09/30 01:30:22;;;;;;;616.43;316.53;;;;;;;;;;5051008;28;20252;-53
2023/09/30 01:32:48;;;;;;;529.77;258.10;;;;;;;;;;5055704;27;20271;-52
2023/09/30 01:35:14;;;;;;;503.43;243.17;;;;;;;;;;5053722;27;20786;-52
2023/09/30 01:37:40;;;;;;;489.73;233.27;;;;;;;;;;5060104;27;20222;-52
2023/09/30 01:40:10;;;;;;;549.67;263.80;;;18.00;1.00;;;;;;5057923;27;20514;-52
2023/09/30 01:42:36;;;;;;;485.80;234.27;;;;;;;;;;5062482;28;20598;-52
2023/09/30 01:45:02;;;;;;;511.10;248.13;;;;;;;;;;5061400;28;20233;-53
2023/09/30 01:47:28;;;;;;;526.90;260.17;;;;;;;;;;5056004;28;20297;-53
2023/09/30 01:49:54;;;;;;;469.70;224.80;;;;;;;;;;5059955;28;20218;-52
2023/09/30 01:52:20;;;;;;;525.13;251.37;;;;;;;;;;5052770;27;20504;-52
2023/09/30 01:54:46;;;;;;;458.07;214.13;;;;;;;;;;5062073;28;20175;-52
2023/09/30 01:57:12;;;;;;;527.47;250.73;;;;;;;;;;5056657;27;20300;-51
2023/09/30 01:59:39;;;;;;;533.80;251.90;;;;;;;;;;5054748;28;20302;-51
2023/09/30 02:02:04;;;;;;;567.07;280.93;;;;;;;;;;5048878;27;20989;-52
2023/09/30 02:04:30;;;;;;;497.00;236.33;;;;;;;;;;5061936;27;20314;-52
2023/09/30 02:06:56;;;;;;;512.77;245.93;;;;;;;;;;5061752;27;20214;-53
2023/09/30 02:09:22;;;;;;;541.03;267.73;;;;;;;;;;5051419;28;20643;-52
2023/09/30 02:11:48;;;;;;;474.10;228.80;;;;;;;;;;5060913;27;20241;-53
2023/09/30 02:14:14;;;;;;;465.87;221.60;;;17.70;1.00;;;;;;5056911;28;20888;-52
2023/09/30 02:16:40;;;;;;;512.00;246.50;;;;;;;;;;5054683;28;20219;-53
2023/09/30 02:19:06;;;;;;;506.63;248.53;;;;;;;;;;5057558;28;20221;-51
2023/09/30 02:21:32;;;;;;;546.43;267.90;;;;;;;;;;5058457;28;20200;-53
2023/09/30 02:23:58;;;;;;;512.70;247.17;;;;;;;;;;5060264;28;20222;-52
2023/09/30 02:26:25;;;;;;;522.37;253.80;;;;;;;;;;5049856;28;20222;-53
2023/09/30 02:28:52;;;;;;;549.80;266.13;;;;;;;;;;5052224;28;20226;-51
2023/09/30 02:31:18;;;;;;;544.63;264.37;;;;;;;;;;5051205;28;20280;-53
2023/09/30 02:33:44;;;;;;;477.67;222.30;;;;;;;;;;5057160;28;20286;-52
2023/09/30 02:36:12;;;;;;;481.50;225.00;;;;;;;;;;5058329;27;20217;-53
2023/09/30 02:38:38;;;;;;;507.00;236.63;;;;;;;;;;5060820;27;20244;-53
2023/09/30 02:41:05;;;;;;;527.53;251.17;;;;;;;;;;5059273;27;20262;-52
2023/09/30 02:43:31;;;;;;;491.67;236.27;;;;;;;;;;5049040;28;20256;-52
2023/09/30 02:45:57;;;;;;;499.53;236.57;;;;;;;;;;5044744;27;20190;-51
2023/09/30 02:48:23;;;;;;;533.60;248.77;;;;;;;;;;5057778;28;20452;-52
2023/09/30 02:50:49;;;;;;;506.43;234.90;;;;;;;;;;5054401;27;20218;-53
2023/09/30 02:53:15;;;;;;;492.23;229.60;;;;;;;;;;5055100;27;20309;-52
2023/09/30 02:55:42;;;;;;;499.33;226.87;;;16.20;1.00;;;;;;5062087;27;20307;-53
2023/09/30 02:58:08;;;;;;;527.20;246.07;;;;;;;;;;5056905;27;20727;-52
2023/09/30 03:00:37;;;;;;;563.07;267.47;;;16.10;14.00;;;;;;5053884;28;20182;-52
2023/09/30 03:03:03;;;;;;;494.43;224.23;;;16.10;95.60;;;;;;5058286;28;20267;-52
2023/09/30 03:05:33;;;;;;;460.97;213.00;;;;;;;;;;5059671;28;20215;-52
2023/09/30 03:07:59;;;;;;;478.53;214.03;;;;;;;;;;5060162;27;20273;-52
2023/09/30 03:10:26;;;;;;;511.20;235.97;;;;;;;;;;5056959;27;20625;-51
2023/09/30 03:12:53;;;;;;;483.73;217.40;;;15.90;99.90;;;;;;5056941;28;20488;-52
2023/09/30 03:15:19;;;;;;;617.10;298.27;;;;;;;;;;5054637;28;20194;-52
2023/09/30 03:17:45;;;;;;;457.80;202.87;;;;;;;;;;5058200;27;20218;-52
2023/09/30 03:20:12;;;;;;;479.77;215.47;;;;;;;;;;5056118;28;20641;-52
2023/09/30 03:22:46;;;;;;;475.87;215.70;;;15.70;99.90;;;;;;5061778;28;20218;-52
2023/09/30 03:25:12;;;;;;;477.67;215.10;;;;;;;;;;5053700;27;20216;-51
2023/09/30 03:27:38;;;;;;;502.90;231.60;;;15.80;99.90;;;;;;5054687;28;20196;-53
2023/09/30 03:30:08;;;;;;;499.60;225.97;;;15.80;99.90;;;;;;5054614;27;20292;-52
2023/09/30 03:32:37;;;;;;;504.60;225.87;;;15.60;99.90;;;;;;5058331;27;20210;-53
2023/09/30 03:35:05;;;;;;;509.13;228.27;;;16.30;99.90;;;;;;5052727;28;20210;-51
2023/09/30 03:37:31;;;;;;;514.90;232.93;;;;;;;;;;5058197;28;20214;-52
2023/09/30 03:39:58;;;;;;;527.60;239.20;;;;;;;;;;5051374;28;20207;-52
2023/09/30 03:42:24;;;;;;;537.63;248.67;;;15.40;1.00;;;;;;5053898;28;20575;-52
2023/09/30 03:44:50;;;;;;;467.90;205.77;;;;;;;;;;5050189;28;20217;-51
2023/09/30 03:47:16;;;;;;;483.67;215.10;;;15.30;1.00;;;;;;5057690;27;20914;-52
2023/09/30 03:49:42;;;;;;;493.17;221.23;;;;;;;;;;5062000;27;20222;-53
2023/09/30 03:52:08;;;;;;;493.10;216.13;;;;;;;;;;5057884;27;20247;-53
2023/09/30 03:54:35;;;;;;;525.20;233.50;;;;;;;;;;5052499;28;20182;-51
2023/09/30 03:57:01;;;;;;;510.90;224.47;;;;;;;;;;5052743;27;20226;-53
2023/09/30 03:59:27;;;;;;;515.67;231.20;;;;;;;;;;5054994;28;20221;-51
2023/09/30 04:01:54;;;;;;;481.27;217.00;;;;;;;;;;5060280;27;20210;-52
2023/09/30 04:04:23;;;;;;;541.83;246.13;;;;;;;;;;5053157;28;20556;-52
2023/09/30 04:06:51;;;;;;;462.47;201.30;;;14.80;1.00;;;;;;5054729;28;20527;-51
2023/09/30 04:09:17;;;;;;;548.90;247.90;;;15.00;1.00;;;;;;5053810;28;20222;-51
2023/09/30 04:11:43;;;;;;;494.23;214.43;;;;;;;;;;5057435;28;20576;-52
2023/09/30 04:14:09;;;;;;;532.73;242.63;;;14.80;1.00;;;;;;5041901;22;20685;-52
2023/09/30 04:16:35;;;;;;;529.30;242.10;;;;;;;;;;4997968;28;20219;-53
2023/09/30 04:19:01;;;;;;;536.43;247.87;;;;;;;;;;5005601;28;20207;-52
2023/09/30 04:21:29;;;;;;;530.40;240.13;;;;;;;;;;5003282;28;20651;-52
2023/09/30 04:23:55;;;;;;;535.73;243.93;;;;;;;;;;4993504;28;20309;-52
2023/09/30 04:26:22;;;;;;;503.43;220.27;;;14.40;7.20;;;;;;4999347;28;20227;-52
2023/09/30 04:28:48;;;;;;;506.23;218.77;;;;;;;;;;4999959;28;20308;-52
2023/09/30 04:31:15;;;;;;;553.20;246.47;;;;;;;;;;4993856;28;20224;-52
2023/09/30 04:33:41;;;;;;;468.03;200.30;;;;;;;;;;5002463;28;20595;-55
2023/09/30 04:36:11;;;;;;;525.17;231.40;;;;;;;;;;4998881;28;20219;-52
2023/09/30 04:38:40;;;;;;;510.83;227.23;;;;;;;;;;5002493;28;20571;-53
2023/09/30 04:41:07;;;;;;;515.30;225.33;;;;;;;;;;4994077;28;20219;-52
2023/09/30 04:43:33;;;;;;;500.87;220.13;;;;;;;;;;5009923;28;20227;-52
2023/09/30 04:45:59;;;;;;;506.37;217.63;;;;;;;;;;5003523;28;20983;-52
2023/09/30 04:48:25;;;;;;;516.83;229.03;;;;;;;;;;5002216;28;20300;-52
2023/09/30 04:50:51;;;;;;;541.40;243.87;;;;;;;;;;4994628;28;20324;-52
2023/09/30 04:53:17;;;;;;;485.50;214.23;;;;;;;;;;5003059;28;20282;-52
2023/09/30 04:55:49;;;;;;;465.60;200.80;;;;;;;;;;5003617;28;20328;-52
2023/09/30 04:58:15;;;;;;;539.50;240.80;;;;;;;;;;5004529;28;20224;-52
2023/09/30 05:00:42;;;;;;;497.63;217.30;;;;;;;;;;5003093;28;20194;-52
2023/09/30 05:03:07;;;;;;;506.70;217.23;;;;;;;;;;5004034;28;20753;-52
2023/09/30 05:05:34;;;;;;;526.67;229.63;;;;;;;;;;5002800;28;20227;-53
2023/09/30 05:08:00;;;;;;;536.20;240.57;;;;;;;;;;4994117;28;20675;-52
2023/09/30 05:10:26;;;;;;;490.17;217.50;;;;;;;;;;5005343;28;20524;-52
2023/09/30 05:12:54;;;;;;;481.53;210.50;;;;;;;;;;5006616;28;20187;-52
2023/09/30 05:15:20;;;;;;;639.50;303.23;;;;;;;;;;4996705;28;20220;-52
2023/09/30 05:17:46;;;;;;;494.40;212.40;;;;;;;;;;5003726;28;20593;-53
2023/09/30 05:20:13;;;;;;;474.03;206.53;;;;;;;;;;5007368;28;20220;-53
2023/09/30 05:22:40;;;;;;;475.37;202.93;;;;;;;;;;5023009;28;20212;-52
2023/09/30 05:25:06;;;;;;;493.93;213.13;;;;;;;;;;5008242;28;20226;-52
2023/09/30 05:27:32;;;;;;;506.03;216.57;;;;;;;;;;5008823;28;20574;-52
2023/09/30 05:29:59;;;;;;;473.47;201.47;;;;;;;;;;5005173;28;20424;-53
2023/09/30 05:32:26;;;;;;;465.27;198.43;;;;;;;;;;5008535;28;20219;-53
2023/09/30 05:34:53;;;;;;;444.23;188.50;;;;;;;;;;5000401;28;20316;-52
2023/09/30 05:37:21;;;;;;;421.00;176.10;;;;;;;;;;5027016;28;20726;-52
2023/09/30 05:39:48;;;;;;;466.77;194.57;;;;;;;;;;5024672;28;20950;-53
2023/09/30 05:42:14;;;;;;;453.17;187.33;;;;;;;;;;5024452;28;20304;-52
2023/09/30 05:44:41;;;;;;;465.53;199.10;;;;;;;;;;5017132;28;20665;-52
2023/09/30 05:47:08;;;;;;;514.97;215.93;;;;;;;;;;5025943;28;20247;-53
2023/09/30 05:49:36;;;;;;;468.80;201.73;;;;;;;;;;5023252;28;20265;-53
2023/09/30 05:52:02;;;;;;;478.30;213.70;;;;;;;;;;5022729;28;20199;-52
2023/09/30 05:54:28;;;;;;;504.10;221.90;;;;;;;;;;5025252;28;20191;-53
2023/09/30 05:56:54;;;;;;;452.27;192.67;;;;;;;;;;5025675;28;20486;-53
2023/09/30 05:59:20;;;;;;;481.47;205.93;;;;;;;;;;5018402;28;20219;-52
2023/09/30 06:01:46;;;;;;;456.20;190.77;;;;;;;;;;5019286;28;20729;-54
2023/09/30 06:04:12;;;;;;;503.47;222.70;;;;;;;;;;5000308;28;20229;-53
2023/09/30 06:06:38;;;;;;;460.47;193.57;;;;;;;;;;5018183;28;20211;-53
2023/09/30 06:09:07;;;;;;;471.20;200.17;;;;;;;;;;5002616;28;20415;-52
2023/09/30 06:11:35;;;;;;;482.13;212.70;;;;;;;;;;5006032;28;20699;-53
2023/09/30 06:14:02;;;;;;;482.03;208.20;;;;;;;;;;5005037;28;20252;-52
2023/09/30 06:16:29;;;;;;;493.60;219.17;;;;;;;;;;4989364;28;20219;-53
2023/09/30 06:18:55;;;;;;;491.97;210.33;;;;;;;;;;5007227;28;20275;-52
2023/09/30 06:21:21;;;;;;;520.27;235.67;;;;;;;;;;5004202;28;20192;-53
2023/09/30 06:23:51;;;;;;;509.67;223.80;;;14.30;99.90;;;;;;5003288;28;20212;-52
2023/09/30 06:26:18;;;;;;;473.43;206.93;;;;;;;;;;5006531;28;20227;-52
2023/09/30 06:28:44;;;;;;;463.03;204.20;;;;;;;;;;5005857;28;20314;-53
2023/09/30 06:31:11;;;;;;;451.40;192.40;;;;;;;;;;5001653;28;20653;-52
2023/09/30 06:33:40;;;;;;;477.20;213.27;;;14.60;99.90;;;;;;5003993;28;20295;-52
2023/09/30 06:36:10;;;;;;;495.63;223.97;;;;;;;;;;5008313;28;20219;-52
2023/09/30 06:38:36;;;;;;;518.40;235.90;;;;;;;;;;4999716;28;20290;-52
2023/09/30 06:41:03;;;;;;;519.80;231.67;;;;;;;;;;4991386;28;20224;-52
2023/09/30 06:43:29;;;;;;;459.00;199.57;;;;;;;;;;5000439;28;20265;-53
2023/09/30 06:45:55;;;;;;;467.80;206.60;;;;;;;;;;5001810;28;20219;-53
2023/09/30 06:48:21;;;;;;;492.37;222.20;;;;;;;;;;4994793;28;20339;-53
2023/09/30 06:50:48;;;;;;;462.23;197.10;;;;;;;;;;5002611;28;20211;-52
2023/09/30 06:53:21;;;;;;;504.20;227.77;;;14.80;99.90;;;;;;4993245;28;20265;-52
2023/09/30 06:55:47;;;;;;;506.53;225.63;;;;;;;;;;5001069;28;20692;-53
2023/09/30 06:58:13;;;;;;;461.10;201.80;;;;;;;;;;5000392;28;20306;-53
2023/09/30 07:00:41;;;;;;;469.73;203.53;;;;;;;;;;4999242;28;20578;-52
2023/09/30 07:03:09;;;;;;;530.23;245.70;;;;;;;;;;4994104;28;20215;-52
2023/09/30 07:05:36;;;;;;;523.13;243.33;;;;;;;;;;4992221;28;20211;-52
2023/09/30 07:08:02;;;;;;;517.73;241.00;;;;;;;;;;4999152;28;20216;-52
2023/09/30 07:10:29;;;;;;;524.67;246.13;;;;;;;;;;4995985;28;20286;-53
2023/09/30 07:12:55;;;;;;;649.67;328.87;;;;;;;;;;4993183;28;20271;-50
2023/09/30 07:15:21;;;;;;;578.10;276.17;;;;;;;;;;4968285;28;20179;-51
2023/09/30 07:17:47;;;;;;;487.93;214.63;;;;;;;;;;4994017;28;20223;-50
2023/09/30 07:20:14;;;;;;;471.47;201.90;;;;;;;;;;4992780;28;20222;-51
2023/09/30 07:22:39;;;;;;;470.53;209.10;;;;;;;;;;5014628;28;20215;-51
2023/09/30 07:25:06;;;;;;;534.77;247.37;;;15.10;99.90;;;;;;5014174;28;20215;-51
2023/09/30 07:27:31;;;;;;;510.10;229.90;;;15.20;99.90;;;;;;4994475;28;20188;-51
2023/09/30 07:29:58;;;;;;;502.33;225.97;;;;;;;;;;4996390;28;20231;-51
2023/09/30 07:32:24;;;;;;;497.20;216.33;;;;;;;;;;4997911;28;20211;-50
2023/09/30 07:34:50;;;;;;;522.53;234.83;;;;;;;;;;4985458;28;20834;-51
2023/09/30 07:37:17;;;;;;;496.87;227.27;;;;;;;;;;4995108;28;20227;-51
2023/09/30 07:39:44;;;;;;;548.00;255.50;;;;;;;;;;4981676;28;20883;-51
2023/09/30 07:42:09;;;;;;;519.07;239.30;;;15.90;99.90;;;;;;4992795;28;20649;-51
2023/09/30 07:44:37;;;;;;;539.80;254.13;;;;;;;;;;4990681;28;20212;-51
2023/09/30 07:47:03;;;;;;;579.33;280.53;;;;;;;;;;4987444;28;20583;-51
2023/09/30 07:49:29;;;;;;;563.17;276.10;;;;;;;;;;4986566;28;20301;-51
2023/09/30 07:51:55;;;;;;;581.53;282.20;;;;;;;;;;4973680;28;20188;-51
2023/09/30 07:54:21;;;;;;;529.60;243.93;;;;;;;;;;4996402;28;20185;-51
2023/09/30 07:56:47;;;;;;;418.93;177.73;;;;;;;;;;5006152;28;20261;-51
2023/09/30 07:59:14;;;;;;;476.93;215.47;;;;;;;;;;5009965;28;20276;-51
2023/09/30 08:01:40;;;;;;;516.27;240.67;;;;;;;;;;4993735;28;20220;-51
2023/09/30 08:04:06;;;;;;;535.63;251.13;;;;;;;;;;4987626;28;20283;-53
2023/09/30 08:06:32;;;;;;;554.30;258.50;;;;;;;;;;4983836;28;20189;-53
2023/09/30 08:08:58;;;;;;;536.37;248.73;;;;;;;;;;4991987;28;20247;-54
2023/09/30 08:11:27;;;;;;;512.10;234.77;;;;;;;;;;4994200;28;20765;-53
2023/09/30 08:13:53;;;;;;;547.27;255.87;;;;;;;;;;4982246;28;21038;-53
2023/09/30 08:16:19;;;;;;;488.87;222.47;;;;;;;;;;4999502;28;20616;-53
2023/09/30 08:18:45;;;;;;;563.23;265.17;;;;;;;;;;5000609;28;20670;-53
2023/09/30 08:21:11;;;;;;;503.73;230.87;;;;;;;;;;4999760;28;20224;-53
2023/09/30 08:23:38;;;;;;;540.67;262.20;;;;;;;;;;4990937;28;20234;-53
2023/09/30 08:26:05;;;;;;;534.97;250.63;;;16.30;99.90;;;;;;4989373;28;20230;-54
2023/09/30 08:28:31;;;;;;;539.43;254.37;;;;;;;;;;4983781;28;20232;-53
2023/09/30 08:31:02;;;;;;;638.53;321.90;;;;;;;;;;4982333;28;20206;-54
2023/09/30 08:33:30;;;;;;;459.07;206.30;;;;;;;;;;4999445;28;20412;-53
2023/09/30 08:35:56;;;;;;;525.60;254.23;;;;;;;;;;4996213;28;20235;-53
2023/09/30 08:38:22;;;;;;;511.73;243.67;;;;;;;;;;5013426;28;20327;-53
2023/09/30 08:40:52;;;;;;;450.07;209.77;;;16.60;99.90;;;;;;5009839;28;20231;-53
2023/09/30 08:43:24;;;;;;;459.13;216.73;;;16.70;99.90;;;;;;4994633;28;20207;-54
2023/09/30 08:45:54;;;;;;;498.27;237.57;;;;;;;;;;4986984;28;20188;-53
2023/09/30 08:48:21;;;;;;;560.07;268.40;;;17.10;99.90;;;;;;4996687;28;20219;-53
2023/09/30 08:50:49;;;;;;;553.27;269.33;;;;;;;;;;4986654;28;21460;-53
2023/09/30 08:53:16;;;;;;;513.87;241.77;;;;;;;;;;5002669;28;20250;-53
2023/09/30 08:55:44;;;;;;;473.50;218.57;;;;;;;;;;4996028;28;20762;-53
2023/09/30 08:58:11;;;;;;;477.40;223.30;;;17.30;99.90;;;;;;5006893;28;20216;-53
2023/09/30 09:00:38;;;;;;;505.40;236.47;;;17.20;99.90;;;;;;4992390;28;20608;-53
2023/09/30 09:03:05;;;;;;;491.20;231.00;;;;;;;;;;4993625;28;20216;-53
2023/09/30 09:05:31;;;;;;;515.67;242.43;;;;;;;;;;4995508;28;20713;-53
2023/09/30 09:07:56;;;;;;;467.10;216.60;;;17.20;99.90;;;;;;5004841;28;20212;-54
2023/09/30 09:10:23;;;;;;;480.00;220.33;;;;;;;;;;5008298;28;20236;-54
2023/09/30 09:12:56;;;;;;;463.73;215.07;;;;;;;;;;5004471;28;22178;-53
2023/09/30 09:15:26;;;;;;;568.27;274.53;;;;;;;;;;4995310;28;20224;-53
2023/09/30 09:17:52;;;;;;;459.93;212.73;;;;;;;;;;5000240;28;20226;-53
2023/09/30 09:20:27;;;;;;;465.03;215.47;;;;;;;;;;4992671;28;20694;-53
2023/09/30 09:22:55;;;;;;;455.73;213.37;;;;;;;;;;4999556;28;20695;-54
2023/09/30 09:25:24;;;;;;;492.33;235.07;;;;;;;;;;5006509;28;20225;-53
2023/09/30 09:27:53;;;;;;;460.03;215.30;;;;;;;;;;4994142;28;20759;-54
2023/09/30 09:30:19;;;;;;;626.03;307.53;;;;;;;;;;4993808;28;20289;-53
2023/09/30 09:32:54;;;;;;;508.90;246.03;;;17.50;99.90;;;;;;4995330;28;20208;-53
2023/09/30 09:35:21;;;;;;;625.37;322.07;;;17.60;99.90;;;;;;4962391;28;20219;-53
2023/09/30 09:37:57;;;;;;;549.57;266.47;;;;;;;;;;4992670;28;20227;-53
2023/09/30 09:40:26;;;;;;;503.83;237.33;;;17.70;99.90;;;;;;4994434;28;20228;-53
2023/09/30 09:42:54;;;;;;;476.20;222.20;;;;;;;;;;4999345;28;20251;-53
2023/09/30 09:45:22;;;;;;;562.30;269.93;;;;;;;;;;5000634;28;20188;-52
2023/09/30 09:47:49;;;;;;;540.60;255.67;;;;;;;;;;4992243;28;20667;-53
2023/09/30 09:50:15;;;;;;;505.60;240.70;;;;;;;;;;4985163;28;20224;-52
2023/09/30 09:52:45;;;;;;;477.50;219.13;;;;;;;;;;5001830;28;20218;-53
2023/09/30 09:55:11;;;;;;;469.37;222.43;;;18.10;99.90;;;;;;5009872;28;20270;-53
2023/09/30 09:57:38;;;;;;;466.67;224.20;;;;;;;;;;5020009;28;20224;-54
2023/09/30 10:00:11;;;;;;;465.57;218.70;;;;;;;;;;5009020;28;20306;-54
2023/09/30 10:02:39;;;;;;;501.80;244.03;;;;;;;;;;5010142;28;20512;-53
2023/09/30 10:05:06;;;;;;;481.73;229.87;;;;;;;;;;4992636;28;20429;-53
2023/09/30 10:07:40;;;;;;;519.83;245.43;;;18.50;99.90;;;;;;5009440;28;20216;-52
2023/09/30 10:10:09;;;;;;;480.07;231.33;;;;;;;;;;5005124;28;20215;-53
2023/09/30 10:12:39;;;;;;;487.80;238.57;;;;;;;;;;5013986;28;20732;-54
2023/09/30 10:15:23;;;;;;;486.57;231.33;;;;;;;;;;5017656;28;20307;-53
2023/09/30 10:18:03;;;;;;;523.73;252.80;;;;;;;;;;5005501;28;20227;-54
2023/09/30 10:20:30;;;;;;;484.27;235.73;;;18.50;97.40;;;;;;5018864;28;20242;-52
2023/09/30 10:23:15;;;;;;;472.93;230.70;;;;;;;;;;5012475;28;20211;-53
2023/09/30 10:25:46;;;;;;;508.47;246.63;;;;;;;;;;5016960;28;20212;-55
2023/09/30 10:28:32;;;;;;;505.97;245.00;;;;;;;;;;5006364;28;20695;-54
2023/09/30 10:31:24;;;;;;;456.83;219.63;;;18.80;96.00;;;;;;5016132;28;20191;-53
2023/09/30 10:33:59;;;;;;;506.60;249.30;;;;;;;;;;5022230;28;20622;-52
2023/09/30 10:36:29;;;;;;;464.73;222.00;;;;;;;;;;5010046;28;20183;-54
2023/09/30 10:38:55;;;;;;;522.37;255.63;;;;;;;;;;5016494;28;20269;-52
2023/09/30 10:41:45;;;;;;;452.77;213.43;;;;;;;;;;5012854;28;20299;-54
2023/09/30 10:44:26;;;;;;;481.10;229.43;;;19.10;95.10;;;;;;4998603;28;20798;-54
2023/09/30 10:46:53;;;;;;;529.20;258.17;;;19.10;95.10;;;;;;4989276;28;20622;-53
2023/09/30 10:49:24;;;;;;;524.37;261.23;;;19.20;94.90;;;;;;4999255;28;20227;-55
2023/09/30 10:51:54;;;;;;;533.30;267.33;;;;;;;;;;4992512;28;20180;-54
2023/09/30 10:54:25;;;;;;;495.80;245.67;;;;;;;;;;4999096;28;20718;-53
2023/09/30 10:56:52;;;;;;;519.33;263.03;;;;;;;;;;5001362;28;20621;-53
2023/09/30 10:59:25;;;;;;;532.67;266.83;;;;;;;;;;5012850;28;20576;-53
2023/09/30 11:01:51;;;;;;;510.80;250.57;;;;;;;;;;4999515;28;20267;-53
2023/09/30 11:04:18;;;;;;;483.80;240.27;;;;;;;;;;5016162;28;20219;-53
2023/09/30 11:06:44;;;;;;;524.83;265.37;;;;;;;;;;5016480;28;20681;-54
2023/09/30 11:09:16;;;;;;;507.53;259.13;;;;;;;;;;4990558;28;20286;-54
2023/09/30 11:11:48;;;;;;;507.90;258.47;;;19.50;91.70;;;;;;4995031;28;20208;-54
2023/09/30 11:14:32;;;;;;;502.47;251.90;;;;;;;;;;4994963;28;20228;-53
2023/09/30 11:17:03;;;;;;;486.67;244.40;;;;;;;;;;4989336;28;20734;-52
2023/09/30 11:19:37;;;;;;;524.60;259.07;;;;;;;;;;4994604;28;20619;-53
2023/09/30 11:22:05;;;;;;;536.87;278.20;;;;;;;;;;4989284;28;20304;-53
2023/09/30 11:24:33;;;;;;;544.73;284.20;;;;;;;;;;5003664;28;20603;-54
2023/09/30 11:26:59;;;;;;;470.60;235.93;;;;;;;;;;4989811;28;20212;-54
2023/09/30 11:29:26;;;;;;;493.97;244.00;;;;;;;;;;4997359;28;20317;-53
2023/09/30 11:31:52;;;;;;;520.67;266.47;;;;;;;;;;4991767;28;20224;-54
2023/09/30 11:34:19;;;;;;;512.63;259.63;;;20.00;88.40;;;;;;4991673;28;20246;-54
2023/09/30 11:36:52;;;;;;;525.00;268.77;;;20.10;82.60;;;;;;5003786;28;20291;-53
2023/09/30 11:39:25;;;;;;;519.13;267.03;;;;;;;;;;4999112;28;20216;-53
2023/09/30 11:41:52;;;;;;;515.27;268.17;;;;;;;;;;4993523;28;20207;-54
2023/09/30 11:44:18;;;;;;;477.10;245.33;;;;;;;;;;5004166;28;20714;-55
2023/09/30 11:46:48;;;;;;;523.07;273.77;;;20.50;79.10;;;;;;4989401;28;20630;-54
2023/09/30 11:49:49;;;;;;;544.77;290.53;;;20.40;79.00;;;;;;4992663;28;20266;-55
2023/09/30 11:52:15;;;;;;;478.60;250.17;;;;;;;;;;4991752;28;20223;-54
2023/09/30 11:54:46;;;;;;;483.83;254.47;;;20.30;76.60;;;;;;4997344;28;20662;-55
2023/09/30 11:57:15;;;;;;;552.63;296.87;;;;;;;;;;4991369;28;20239;-54
2023/09/30 11:59:41;;;;;;;501.17;269.00;;;;;;;;;;4988970;28;20308;-54
2023/09/30 12:02:10;;;;;;;540.07;289.20;;;20.50;75.10;;;;;;4999482;28;20250;-55
2023/09/30 12:04:37;;;;;;;535.03;290.67;;;20.80;73.30;;;;;;5005012;28;20219;-55
2023/09/30 12:07:03;;;;;;;427.70;240.40;;;;;;;;;;5013631;28;20176;-55
2023/09/30 12:09:30;;;;;;;410.53;227.97;;;;;;;;;;5033230;28;20880;-55
2023/09/30 12:11:57;;;;;;;448.53;259.80;;;20.60;75.20;;;;;;5023713;28;20227;-55
2023/09/30 12:14:23;;;;;;;414.70;234.13;;;;;;;;;;5020251;28;20309;-54
2023/09/30 12:16:50;;;;;;;435.03;245.77;;;21.10;68.80;;;;;;5020813;28;20302;-55
2023/09/30 12:19:17;;;;;;;428.30;239.67;;;20.90;65.10;;;;;;5028421;28;20207;-55
2023/09/30 12:21:46;;;;;;;433.53;245.40;;;21.00;65.30;;;;;;5028386;28;20241;-55
2023/09/30 12:24:15;;;;;;;424.67;242.33;;;;;;;;;;5021797;28;20205;-54
2023/09/30 12:26:41;;;;;;;401.40;231.23;;;;;;;;;;5020794;28;20603;-55
2023/09/30 12:29:09;;;;;;;438.67;251.30;;;20.80;68.70;;;;;;5034540;28;20219;-55
2023/09/30 12:31:34;;;;;;;425.67;243.60;;;;;;;;;;5021735;28;20215;-55
2023/09/30 12:34:02;;;;;;;420.90;239.50;;;;;;;;;;5032041;28;20179;-55
2023/09/30 12:36:28;;;;;;;403.57;226.47;;;;;;;;;;5020854;28;20189;-55
2023/09/30 12:38:53;;;;;;;409.60;231.17;;;20.30;70.30;;;;;;5018303;28;20223;-55
2023/09/30 12:41:19;;;;;;;409.07;232.63;;;;;;;;;;5014226;28;20220;-55
2023/09/30 12:43:45;;;;;;;447.67;250.97;;;;;;;;;;5015941;28;20369;-55
2023/09/30 12:46:13;;;;;;;420.80;234.17;;;;;;;;;;5018524;28;20655;-54
2023/09/30 12:48:39;;;;;;;380.27;213.33;;;;;;;;;;5027506;28;20290;-55
2023/09/30 12:51:06;;;;;;;393.23;219.43;;;;;;;;;;5025356;28;20216;-55
2023/09/30 12:53:32;;;;;;;405.87;227.23;;;;;;;;;;5026110;28;20592;-55
2023/09/30 12:55:59;;;;;;;419.93;238.43;;;;;;;;;;5023620;28;20272;-55
2023/09/30 12:58:27;;;;;;;419.33;240.00;;;;;;;;;;5028659;28;20220;-55
2023/09/30 13:03:12;;;;;;;443.73;252.27;;;;;;;;;;5009028;27;20970;-54
2023/09/30 13:05:38;;;;;;;430.50;248.13;;;;;;;;;;4999721;28;20208;-53
2023/09/30 13:08:05;;;;;;;425.10;246.73;;;;;;;;;;4994530;28;20311;-54
2023/09/30 13:10:31;;;;;;;470.13;266.30;;;;;;;;;;4979540;28;20691;-54
2023/09/30 13:12:57;;;;;;;502.07;289.63;;;;;;;;;;4993877;28;20273;-54
2023/09/30 13:15:26;;;;;;;624.50;356.40;;;;;;;;;;4988449;28;20844;-54
2023/09/30 13:17:51;;;;;;;540.70;316.67;;;;;;;;;;4996704;28;20416;-54
2023/09/30 13:20:17;;;;;;;570.33;331.00;;;;;;;;;;4983317;28;20307;-54
2023/09/30 13:22:43;;;;;;;501.40;303.63;;;;;;;;;;4982876;28;20225;-54
2023/09/30 13:25:12;;;;;;;492.30;295.20;;;;;;;;;;5000421;28;20227;-54
2023/09/30 13:27:38;;;;;;;455.93;274.57;;;;;;;;;;5001801;28;20177;-54
2023/09/30 13:30:04;;;;;;;516.67;318.50;;;;;;;;;;4984069;28;20298;-54
2023/09/30 13:32:30;;;;;;;480.07;308.50;;;;;;;;;;4982413;28;20702;-54
2023/09/30 13:34:57;;;;;;;469.53;293.30;;;23.50;39.90;;;;;;4989059;28;20244;-55
2023/09/30 13:37:29;;;;;;;502.57;323.63;;;;;;;;;;4985236;28;20968;-54